sensor_id;sensor_type;location;lat;lon;timestamp;P1;durP1;ratioP1;P2;durP2;ratioP2
1416;SDS011;703;51.162;13.574;2023-11-19T00:00:34;8.63;;;7.90;;
1416;SDS011;703;51.162;13.574;2023-11-19T00:03:00;7.97;;;7.47;;
1416;SDS011;703;51.162;13.574;2023-11-19T00:05:26;6.23;;;5.87;;
1416;SDS011;703;51.162;13.574;2023-11-19T00:07:52;6.80;;;6.40;;
1416;SDS011;703;51.162;13.574;2023-11-19T00:10:18;8.03;;;7.53;;
1416;SDS011;703;51.162;13.574;2023-11-19T00:12:45;6.03;;;5.73;;
1416;SDS011;703;51.162;13.574;2023-11-19T00:15:15;8.13;;;7.73;;
1416;SDS011;703;51.162;13.574;2023-11-19T00:17:45;9.17;;;8.43;;
1416;SDS011;703;51.162;13.574;2023-11-19T00:20:12;7.17;;;6.77;;
1416;SDS011;703;51.162;13.574;2023-11-19T00:22:39;7.07;;;6.50;;
1416;SDS011;703;51.162;13.574;2023-11-19T00:25:05;7.37;;;6.90;;
1416;SDS011;703;51.162;13.574;2023-11-19T00:27:31;8.17;;;7.47;;
1416;SDS011;703;51.162;13.574;2023-11-19T00:29:57;6.40;;;6.00;;
1416;SDS011;703;51.162;13.574;2023-11-19T00:32:23;7.60;;;6.37;;
1416;SDS011;703;51.162;13.574;2023-11-19T00:34:48;19.07;;;10.73;;
1416;SDS011;703;51.162;13.574;2023-11-19T00:37:14;9.17;;;8.50;;
1416;SDS011;703;51.162;13.574;2023-11-19T00:39:40;6.57;;;6.27;;
1416;SDS011;703;51.162;13.574;2023-11-19T00:42:08;16.67;;;8.00;;
1416;SDS011;703;51.162;13.574;2023-11-19T00:44:37;8.10;;;7.40;;
1416;SDS011;703;51.162;13.574;2023-11-19T00:47:02;9.13;;;8.60;;
1416;SDS011;703;51.162;13.574;2023-11-19T00:49:28;8.63;;;8.10;;
1416;SDS011;703;51.162;13.574;2023-11-19T00:51:54;8.67;;;8.10;;
1416;SDS011;703;51.162;13.574;2023-11-19T00:54:19;8.90;;;8.20;;
1416;SDS011;703;51.162;13.574;2023-11-19T00:56:45;7.53;;;7.00;;
1416;SDS011;703;51.162;13.574;2023-11-19T00:59:10;7.57;;;6.93;;
1416;SDS011;703;51.162;13.574;2023-11-19T01:01:36;8.00;;;7.50;;
1416;SDS011;703;51.162;13.574;2023-11-19T01:04:01;9.07;;;8.30;;
1416;SDS011;703;51.162;13.574;2023-11-19T01:06:31;8.10;;;7.60;;
1416;SDS011;703;51.162;13.574;2023-11-19T01:08:57;8.40;;;7.83;;
1416;SDS011;703;51.162;13.574;2023-11-19T01:11:23;7.87;;;6.93;;
1416;SDS011;703;51.162;13.574;2023-11-19T01:13:49;8.80;;;8.10;;
1416;SDS011;703;51.162;13.574;2023-11-19T01:16:16;7.77;;;7.27;;
1416;SDS011;703;51.162;13.574;2023-11-19T01:18:42;8.87;;;8.07;;
1416;SDS011;703;51.162;13.574;2023-11-19T01:21:07;6.93;;;6.43;;
1416;SDS011;703;51.162;13.574;2023-11-19T01:23:33;6.60;;;6.30;;
1416;SDS011;703;51.162;13.574;2023-11-19T01:25:59;11.03;;;10.30;;
1416;SDS011;703;51.162;13.574;2023-11-19T01:28:25;7.73;;;6.97;;
1416;SDS011;703;51.162;13.574;2023-11-19T01:30:50;7.83;;;7.43;;
1416;SDS011;703;51.162;13.574;2023-11-19T01:33:16;7.07;;;6.67;;
1416;SDS011;703;51.162;13.574;2023-11-19T01:35:42;8.00;;;7.43;;
1416;SDS011;703;51.162;13.574;2023-11-19T01:38:07;12.43;;;7.37;;
1416;SDS011;703;51.162;13.574;2023-11-19T01:40:35;7.50;;;7.03;;
1416;SDS011;703;51.162;13.574;2023-11-19T01:43:02;8.53;;;7.93;;
1416;SDS011;703;51.162;13.574;2023-11-19T01:45:30;10.33;;;9.50;;
1416;SDS011;703;51.162;13.574;2023-11-19T01:47:57;7.27;;;6.93;;
1416;SDS011;703;51.162;13.574;2023-11-19T01:50:23;9.17;;;7.33;;
1416;SDS011;703;51.162;13.574;2023-11-19T01:52:52;7.97;;;7.37;;
1416;SDS011;703;51.162;13.574;2023-11-19T01:55:19;7.83;;;7.30;;
1416;SDS011;703;51.162;13.574;2023-11-19T01:57:45;7.10;;;6.40;;
1416;SDS011;703;51.162;13.574;2023-11-19T02:00:12;7.83;;;7.20;;
1416;SDS011;703;51.162;13.574;2023-11-19T02:02:39;8.03;;;7.53;;
1416;SDS011;703;51.162;13.574;2023-11-19T02:05:08;7.60;;;7.20;;
1416;SDS011;703;51.162;13.574;2023-11-19T02:07:35;7.37;;;6.73;;
1416;SDS011;703;51.162;13.574;2023-11-19T02:10:00;6.87;;;6.37;;
1416;SDS011;703;51.162;13.574;2023-11-19T02:12:30;7.00;;;6.70;;
1416;SDS011;703;51.162;13.574;2023-11-19T02:14:58;7.10;;;6.70;;
1416;SDS011;703;51.162;13.574;2023-11-19T02:17:33;6.37;;;5.80;;
1416;SDS011;703;51.162;13.574;2023-11-19T02:20:05;6.80;;;6.07;;
1416;SDS011;703;51.162;13.574;2023-11-19T02:22:34;6.87;;;6.30;;
1416;SDS011;703;51.162;13.574;2023-11-19T02:25:00;5.93;;;5.63;;
1416;SDS011;703;51.162;13.574;2023-11-19T02:30:20;5.70;;;5.30;;
1416;SDS011;703;51.162;13.574;2023-11-19T02:32:51;6.60;;;5.97;;
1416;SDS011;703;51.162;13.574;2023-11-19T02:35:17;4.90;;;4.60;;
1416;SDS011;703;51.162;13.574;2023-11-19T02:37:43;8.97;;;6.40;;
1416;SDS011;703;51.162;13.574;2023-11-19T02:40:10;7.53;;;6.60;;
1416;SDS011;703;51.162;13.574;2023-11-19T02:42:36;6.47;;;6.07;;
1416;SDS011;703;51.162;13.574;2023-11-19T02:45:01;6.30;;;6.00;;
1416;SDS011;703;51.162;13.574;2023-11-19T02:47:31;7.70;;;5.67;;
1416;SDS011;703;51.162;13.574;2023-11-19T02:49:56;6.53;;;5.83;;
1416;SDS011;703;51.162;13.574;2023-11-19T02:52:22;5.27;;;5.00;;
1416;SDS011;703;51.162;13.574;2023-11-19T02:54:49;5.30;;;5.00;;
1416;SDS011;703;51.162;13.574;2023-11-19T02:57:15;4.70;;;4.50;;
1416;SDS011;703;51.162;13.574;2023-11-19T02:59:44;5.77;;;5.47;;
1416;SDS011;703;51.162;13.574;2023-11-19T03:02:09;5.03;;;4.83;;
1416;SDS011;703;51.162;13.574;2023-11-19T03:04:40;5.03;;;4.73;;
1416;SDS011;703;51.162;13.574;2023-11-19T03:07:08;4.10;;;3.90;;
1416;SDS011;703;51.162;13.574;2023-11-19T03:09:34;4.57;;;4.37;;
1416;SDS011;703;51.162;13.574;2023-11-19T03:12:01;10.30;;;5.67;;
1416;SDS011;703;51.162;13.574;2023-11-19T03:14:26;5.37;;;5.07;;
1416;SDS011;703;51.162;13.574;2023-11-19T03:16:52;4.37;;;4.17;;
1416;SDS011;703;51.162;13.574;2023-11-19T03:19:18;4.17;;;3.97;;
1416;SDS011;703;51.162;13.574;2023-11-19T03:21:44;4.60;;;4.40;;
1416;SDS011;703;51.162;13.574;2023-11-19T03:24:09;5.33;;;4.93;;
1416;SDS011;703;51.162;13.574;2023-11-19T03:26:35;5.43;;;4.93;;
1416;SDS011;703;51.162;13.574;2023-11-19T03:29:02;6.97;;;6.67;;
1416;SDS011;703;51.162;13.574;2023-11-19T03:31:27;4.77;;;4.47;;
1416;SDS011;703;51.162;13.574;2023-11-19T03:33:53;4.37;;;4.17;;
1416;SDS011;703;51.162;13.574;2023-11-19T03:36:19;4.60;;;4.40;;
1416;SDS011;703;51.162;13.574;2023-11-19T03:38:44;4.40;;;4.20;;
1416;SDS011;703;51.162;13.574;2023-11-19T03:41:13;4.17;;;3.97;;
1416;SDS011;703;51.162;13.574;2023-11-19T03:43:39;7.43;;;6.93;;
1416;SDS011;703;51.162;13.574;2023-11-19T03:46:18;5.43;;;5.13;;
1416;SDS011;703;51.162;13.574;2023-11-19T03:48:44;4.23;;;4.03;;
1416;SDS011;703;51.162;13.574;2023-11-19T03:51:14;5.03;;;4.63;;
1416;SDS011;703;51.162;13.574;2023-11-19T03:53:43;5.13;;;4.67;;
1416;SDS011;703;51.162;13.574;2023-11-19T03:56:10;4.73;;;4.33;;
1416;SDS011;703;51.162;13.574;2023-11-19T03:58:36;4.53;;;4.33;;
1416;SDS011;703;51.162;13.574;2023-11-19T04:01:03;4.93;;;4.63;;
1416;SDS011;703;51.162;13.574;2023-11-19T04:03:29;5.17;;;4.87;;
1416;SDS011;703;51.162;13.574;2023-11-19T04:05:55;6.73;;;5.37;;
1416;SDS011;703;51.162;13.574;2023-11-19T04:08:21;4.20;;;4.00;;
1416;SDS011;703;51.162;13.574;2023-11-19T04:10:46;5.10;;;4.60;;
1416;SDS011;703;51.162;13.574;2023-11-19T04:13:12;5.57;;;5.27;;
1416;SDS011;703;51.162;13.574;2023-11-19T04:15:38;3.97;;;3.77;;
1416;SDS011;703;51.162;13.574;2023-11-19T04:18:03;4.47;;;4.17;;
1416;SDS011;703;51.162;13.574;2023-11-19T04:20:29;3.90;;;3.70;;
1416;SDS011;703;51.162;13.574;2023-11-19T04:22:54;3.80;;;3.50;;
1416;SDS011;703;51.162;13.574;2023-11-19T04:25:19;5.30;;;4.80;;
1416;SDS011;703;51.162;13.574;2023-11-19T04:27:45;4.27;;;4.07;;
1416;SDS011;703;51.162;13.574;2023-11-19T04:30:12;4.50;;;4.30;;
1416;SDS011;703;51.162;13.574;2023-11-19T04:32:38;4.90;;;4.60;;
1416;SDS011;703;51.162;13.574;2023-11-19T04:35:04;4.00;;;3.90;;
1416;SDS011;703;51.162;13.574;2023-11-19T04:37:31;4.67;;;4.03;;
1416;SDS011;703;51.162;13.574;2023-11-19T04:39:57;5.83;;;4.37;;
1416;SDS011;703;51.162;13.574;2023-11-19T04:42:22;4.23;;;3.93;;
1416;SDS011;703;51.162;13.574;2023-11-19T04:44:49;6.33;;;4.27;;
1416;SDS011;703;51.162;13.574;2023-11-19T04:47:14;4.20;;;4.00;;
1416;SDS011;703;51.162;13.574;2023-11-19T04:49:40;4.30;;;4.10;;
1416;SDS011;703;51.162;13.574;2023-11-19T04:52:07;4.07;;;3.87;;
1416;SDS011;703;51.162;13.574;2023-11-19T04:54:33;4.97;;;4.67;;
1416;SDS011;703;51.162;13.574;2023-11-19T04:56:58;4.23;;;4.03;;
1416;SDS011;703;51.162;13.574;2023-11-19T04:59:24;4.70;;;4.27;;
1416;SDS011;703;51.162;13.574;2023-11-19T05:01:49;4.17;;;3.90;;
1416;SDS011;703;51.162;13.574;2023-11-19T05:04:15;4.90;;;4.60;;
1416;SDS011;703;51.162;13.574;2023-11-19T05:06:41;5.50;;;5.13;;
1416;SDS011;703;51.162;13.574;2023-11-19T05:09:07;6.43;;;6.10;;
1416;SDS011;703;51.162;13.574;2023-11-19T05:11:33;3.90;;;3.70;;
1416;SDS011;703;51.162;13.574;2023-11-19T05:13:59;4.93;;;4.73;;
1416;SDS011;703;51.162;13.574;2023-11-19T05:16:25;4.40;;;4.20;;
1416;SDS011;703;51.162;13.574;2023-11-19T05:18:51;4.43;;;4.23;;
1416;SDS011;703;51.162;13.574;2023-11-19T05:21:16;5.10;;;4.23;;
1416;SDS011;703;51.162;13.574;2023-11-19T05:23:42;6.20;;;4.97;;
1416;SDS011;703;51.162;13.574;2023-11-19T05:26:08;5.83;;;5.47;;
1416;SDS011;703;51.162;13.574;2023-11-19T05:28:35;4.37;;;4.07;;
1416;SDS011;703;51.162;13.574;2023-11-19T05:31:02;9.20;;;5.00;;
1416;SDS011;703;51.162;13.574;2023-11-19T05:33:28;4.50;;;4.30;;
1416;SDS011;703;51.162;13.574;2023-11-19T05:35:54;7.87;;;6.97;;
1416;SDS011;703;51.162;13.574;2023-11-19T05:38:19;4.40;;;4.20;;
1416;SDS011;703;51.162;13.574;2023-11-19T05:40:46;4.40;;;4.20;;
1416;SDS011;703;51.162;13.574;2023-11-19T05:43:13;5.00;;;4.70;;
1416;SDS011;703;51.162;13.574;2023-11-19T05:45:39;4.77;;;4.57;;
1416;SDS011;703;51.162;13.574;2023-11-19T05:48:05;4.53;;;4.13;;
1416;SDS011;703;51.162;13.574;2023-11-19T05:50:30;6.17;;;5.60;;
1416;SDS011;703;51.162;13.574;2023-11-19T05:52:56;4.90;;;4.60;;
1416;SDS011;703;51.162;13.574;2023-11-19T05:55:21;4.73;;;4.53;;
1416;SDS011;703;51.162;13.574;2023-11-19T05:57:48;4.43;;;4.23;;
1416;SDS011;703;51.162;13.574;2023-11-19T06:00:14;6.00;;;5.60;;
1416;SDS011;703;51.162;13.574;2023-11-19T06:02:40;4.73;;;4.53;;
1416;SDS011;703;51.162;13.574;2023-11-19T06:05:06;7.30;;;5.87;;
1416;SDS011;703;51.162;13.574;2023-11-19T06:07:32;6.83;;;6.33;;
1416;SDS011;703;51.162;13.574;2023-11-19T06:09:58;5.13;;;4.83;;
1416;SDS011;703;51.162;13.574;2023-11-19T06:12:23;3.90;;;3.70;;
1416;SDS011;703;51.162;13.574;2023-11-19T06:14:49;7.70;;;6.43;;
1416;SDS011;703;51.162;13.574;2023-11-19T06:17:14;11.20;;;6.00;;
1416;SDS011;703;51.162;13.574;2023-11-19T06:19:40;5.57;;;5.20;;
1416;SDS011;703;51.162;13.574;2023-11-19T06:22:05;4.47;;;4.27;;
1416;SDS011;703;51.162;13.574;2023-11-19T06:24:31;4.43;;;4.23;;
1416;SDS011;703;51.162;13.574;2023-11-19T06:26:57;4.53;;;4.13;;
1416;SDS011;703;51.162;13.574;2023-11-19T06:29:23;5.70;;;5.40;;
1416;SDS011;703;51.162;13.574;2023-11-19T06:31:48;4.00;;;3.87;;
1416;SDS011;703;51.162;13.574;2023-11-19T06:34:14;5.07;;;4.87;;
1416;SDS011;703;51.162;13.574;2023-11-19T06:36:40;4.37;;;4.17;;
1416;SDS011;703;51.162;13.574;2023-11-19T06:39:05;4.10;;;3.90;;
1416;SDS011;703;51.162;13.574;2023-11-19T06:41:31;4.87;;;4.57;;
1416;SDS011;703;51.162;13.574;2023-11-19T06:43:57;4.30;;;4.10;;
1416;SDS011;703;51.162;13.574;2023-11-19T06:46:22;5.27;;;4.87;;
1416;SDS011;703;51.162;13.574;2023-11-19T06:48:48;4.10;;;3.90;;
1416;SDS011;703;51.162;13.574;2023-11-19T06:51:13;6.37;;;6.07;;
1416;SDS011;703;51.162;13.574;2023-11-19T06:53:39;12.13;;;7.33;;
1416;SDS011;703;51.162;13.574;2023-11-19T06:56:19;6.13;;;5.47;;
1416;SDS011;703;51.162;13.574;2023-11-19T06:58:49;4.40;;;4.10;;
1416;SDS011;703;51.162;13.574;2023-11-19T07:01:15;6.00;;;5.50;;
1416;SDS011;703;51.162;13.574;2023-11-19T07:03:41;4.10;;;3.90;;
1416;SDS011;703;51.162;13.574;2023-11-19T07:06:07;4.33;;;4.10;;
1416;SDS011;703;51.162;13.574;2023-11-19T07:08:33;6.50;;;4.63;;
1416;SDS011;703;51.162;13.574;2023-11-19T07:10:59;3.97;;;3.77;;
1416;SDS011;703;51.162;13.574;2023-11-19T07:13:25;5.17;;;4.83;;
1416;SDS011;703;51.162;13.574;2023-11-19T07:15:52;3.97;;;3.67;;
1416;SDS011;703;51.162;13.574;2023-11-19T07:18:18;7.17;;;6.60;;
1416;SDS011;703;51.162;13.574;2023-11-19T07:20:47;5.73;;;4.60;;
1416;SDS011;703;51.162;13.574;2023-11-19T07:23:12;5.57;;;5.17;;
1416;SDS011;703;51.162;13.574;2023-11-19T07:25:39;5.33;;;4.90;;
1416;SDS011;703;51.162;13.574;2023-11-19T07:28:05;4.73;;;4.43;;
1416;SDS011;703;51.162;13.574;2023-11-19T07:30:31;4.37;;;4.07;;
1416;SDS011;703;51.162;13.574;2023-11-19T07:32:56;4.53;;;4.23;;
1416;SDS011;703;51.162;13.574;2023-11-19T07:35:22;5.17;;;4.77;;
1416;SDS011;703;51.162;13.574;2023-11-19T07:37:47;3.80;;;3.60;;
1416;SDS011;703;51.162;13.574;2023-11-19T07:40:15;3.60;;;3.43;;
1416;SDS011;703;51.162;13.574;2023-11-19T07:42:40;4.43;;;4.13;;
1416;SDS011;703;51.162;13.574;2023-11-19T07:45:06;3.90;;;3.70;;
1416;SDS011;703;51.162;13.574;2023-11-19T07:47:32;4.60;;;4.20;;
1416;SDS011;703;51.162;13.574;2023-11-19T07:49:57;6.53;;;4.17;;
1416;SDS011;703;51.162;13.574;2023-11-19T07:52:23;4.57;;;4.17;;
1416;SDS011;703;51.162;13.574;2023-11-19T07:54:48;3.90;;;3.70;;
1416;SDS011;703;51.162;13.574;2023-11-19T07:57:14;4.83;;;3.67;;
1416;SDS011;703;51.162;13.574;2023-11-19T07:59:40;4.57;;;4.20;;
1416;SDS011;703;51.162;13.574;2023-11-19T08:02:05;4.97;;;4.53;;
1416;SDS011;703;51.162;13.574;2023-11-19T08:04:31;4.33;;;3.30;;
1416;SDS011;703;51.162;13.574;2023-11-19T08:06:56;3.37;;;3.27;;
1416;SDS011;703;51.162;13.574;2023-11-19T08:09:22;4.30;;;4.00;;
1416;SDS011;703;51.162;13.574;2023-11-19T08:11:48;3.40;;;3.30;;
1416;SDS011;703;51.162;13.574;2023-11-19T08:14:13;3.13;;;2.93;;
1416;SDS011;703;51.162;13.574;2023-11-19T08:16:39;3.03;;;2.87;;
1416;SDS011;703;51.162;13.574;2023-11-19T08:19:05;2.47;;;2.37;;
1416;SDS011;703;51.162;13.574;2023-11-19T08:21:30;2.10;;;2.00;;
1416;SDS011;703;51.162;13.574;2023-11-19T08:23:56;2.30;;;2.20;;
1416;SDS011;703;51.162;13.574;2023-11-19T08:26:22;2.60;;;2.50;;
1416;SDS011;703;51.162;13.574;2023-11-19T08:28:47;2.60;;;2.50;;
1416;SDS011;703;51.162;13.574;2023-11-19T08:31:13;2.20;;;2.10;;
1416;SDS011;703;51.162;13.574;2023-11-19T08:33:38;2.40;;;2.30;;
1416;SDS011;703;51.162;13.574;2023-11-19T08:36:04;2.37;;;2.27;;
1416;SDS011;703;51.162;13.574;2023-11-19T08:38:30;2.93;;;2.73;;
1416;SDS011;703;51.162;13.574;2023-11-19T08:40:55;2.70;;;2.50;;
1416;SDS011;703;51.162;13.574;2023-11-19T08:43:25;2.10;;;2.00;;
1416;SDS011;703;51.162;13.574;2023-11-19T08:45:51;3.33;;;3.13;;
1416;SDS011;703;51.162;13.574;2023-11-19T08:48:17;2.47;;;2.37;;
1416;SDS011;703;51.162;13.574;2023-11-19T08:50:42;371.83;;;340.27;;
1416;SDS011;703;51.162;13.574;2023-11-19T08:53:08;516.57;;;294.97;;
1416;SDS011;703;51.162;13.574;2023-11-19T08:55:33;504.43;;;232.00;;
1416;SDS011;703;51.162;13.574;2023-11-19T08:57:59;462.13;;;274.93;;
1416;SDS011;703;51.162;13.574;2023-11-19T09:00:24;334.43;;;224.73;;
1416;SDS011;703;51.162;13.574;2023-11-19T09:02:50;411.57;;;273.07;;
1416;SDS011;703;51.162;13.574;2023-11-19T09:05:15;393.53;;;244.27;;
1416;SDS011;703;51.162;13.574;2023-11-19T09:07:40;319.07;;;223.17;;
1416;SDS011;703;51.162;13.574;2023-11-19T09:10:06;309.13;;;214.53;;
1416;SDS011;703;51.162;13.574;2023-11-19T09:12:33;3.30;;;3.10;;
1416;SDS011;703;51.162;13.574;2023-11-19T09:14:59;3.43;;;2.63;;
1416;SDS011;703;51.162;13.574;2023-11-19T09:17:24;2.50;;;2.30;;
1416;SDS011;703;51.162;13.574;2023-11-19T09:19:50;2.40;;;2.30;;
1416;SDS011;703;51.162;13.574;2023-11-19T09:22:15;3.10;;;2.90;;
1416;SDS011;703;51.162;13.574;2023-11-19T09:24:41;3.40;;;2.20;;
1416;SDS011;703;51.162;13.574;2023-11-19T09:27:09;2.60;;;2.43;;
1416;SDS011;703;51.162;13.574;2023-11-19T09:29:34;2.60;;;2.50;;
1416;SDS011;703;51.162;13.574;2023-11-19T09:32:00;2.17;;;2.07;;
1416;SDS011;703;51.162;13.574;2023-11-19T09:34:26;2.83;;;2.60;;
1416;SDS011;703;51.162;13.574;2023-11-19T09:36:51;3.00;;;2.80;;
1416;SDS011;703;51.162;13.574;2023-11-19T09:39:17;2.90;;;2.80;;
1416;SDS011;703;51.162;13.574;2023-11-19T09:41:43;2.00;;;1.90;;
1416;SDS011;703;51.162;13.574;2023-11-19T09:44:10;2.60;;;2.20;;
1416;SDS011;703;51.162;13.574;2023-11-19T09:46:36;2.53;;;2.43;;
1416;SDS011;703;51.162;13.574;2023-11-19T09:49:05;2.23;;;0.90;;
1416;SDS011;703;51.162;13.574;2023-11-19T09:51:32;3.33;;;3.13;;
1416;SDS011;703;51.162;13.574;2023-11-19T09:53:58;2.30;;;2.20;;
1416;SDS011;703;51.162;13.574;2023-11-19T09:56:23;3.27;;;2.97;;
1416;SDS011;703;51.162;13.574;2023-11-19T09:58:50;2.53;;;2.33;;
1416;SDS011;703;51.162;13.574;2023-11-19T10:01:15;388.87;;;341.60;;
1416;SDS011;703;51.162;13.574;2023-11-19T10:03:41;67.80;;;47.77;;
1416;SDS011;703;51.162;13.574;2023-11-19T10:06:09;42.40;;;18.33;;
1416;SDS011;703;51.162;13.574;2023-11-19T10:08:39;57.43;;;30.63;;
1416;SDS011;703;51.162;13.574;2023-11-19T10:11:08;93.63;;;49.40;;
1416;SDS011;703;51.162;13.574;2023-11-19T10:13:35;90.80;;;46.37;;
1416;SDS011;703;51.162;13.574;2023-11-19T10:16:07;289.27;;;189.83;;
1416;SDS011;703;51.162;13.574;2023-11-19T10:18:34;2.42;;;1.00;;
1416;SDS011;703;51.162;13.574;2023-11-19T10:21:03;4.83;;;4.43;;
1416;SDS011;703;51.162;13.574;2023-11-19T10:23:30;38.00;;;24.87;;
1416;SDS011;703;51.162;13.574;2023-11-19T10:26:02;20.73;;;11.93;;
1416;SDS011;703;51.162;13.574;2023-11-19T10:28:36;18.10;;;9.00;;
1416;SDS011;703;51.162;13.574;2023-11-19T10:31:04;32.67;;;21.07;;
1416;SDS011;703;51.162;13.574;2023-11-19T10:33:30;192.88;;;132.02;;
1416;SDS011;703;51.162;13.574;2023-11-19T10:35:57;11.57;;;3.70;;
1416;SDS011;703;51.162;13.574;2023-11-19T10:38:23;2.00;;;1.23;;
1416;SDS011;703;51.162;13.574;2023-11-19T10:40:50;2.77;;;2.67;;
1416;SDS011;703;51.162;13.574;2023-11-19T10:43:19;59.73;;;33.90;;
1416;SDS011;703;51.162;13.574;2023-11-19T10:45:47;105.80;;;58.70;;
1416;SDS011;703;51.162;13.574;2023-11-19T10:48:13;3.17;;;2.97;;
1416;SDS011;703;51.162;13.574;2023-11-19T10:50:39;3.40;;;3.20;;
1416;SDS011;703;51.162;13.574;2023-11-19T10:53:06;2.70;;;2.60;;
1416;SDS011;703;51.162;13.574;2023-11-19T10:55:34;3.20;;;3.00;;
1416;SDS011;703;51.162;13.574;2023-11-19T11:00:28;3.87;;;3.57;;
1416;SDS011;703;51.162;13.574;2023-11-19T11:03:01;3.33;;;2.93;;
1416;SDS011;703;51.162;13.574;2023-11-19T11:05:32;4.37;;;2.67;;
1416;SDS011;703;51.162;13.574;2023-11-19T11:08:00;2.60;;;2.40;;
1416;SDS011;703;51.162;13.574;2023-11-19T11:10:27;2.77;;;2.63;;
1416;SDS011;703;51.162;13.574;2023-11-19T11:12:59;2.93;;;2.73;;
1416;SDS011;703;51.162;13.574;2023-11-19T11:15:27;6.10;;;3.00;;
1416;SDS011;703;51.162;13.574;2023-11-19T11:17:57;2.47;;;2.37;;
1416;SDS011;703;51.162;13.574;2023-11-19T11:20:26;2.97;;;2.87;;
1416;SDS011;703;51.162;13.574;2023-11-19T11:23:01;3.37;;;3.17;;
1416;SDS011;703;51.162;13.574;2023-11-19T11:31:15;3.10;;;3.00;;
1416;SDS011;703;51.162;13.574;2023-11-19T11:39:39;4.43;;;4.03;;
1416;SDS011;703;51.162;13.574;2023-11-19T11:44:59;4.13;;;3.27;;
1416;SDS011;703;51.162;13.574;2023-11-19T11:47:50;3.47;;;3.27;;
1416;SDS011;703;51.162;13.574;2023-11-19T11:50:18;3.60;;;3.40;;
1416;SDS011;703;51.162;13.574;2023-11-19T11:57:58;3.30;;;3.10;;
1416;SDS011;703;51.162;13.574;2023-11-19T12:00:31;3.40;;;3.20;;
1416;SDS011;703;51.162;13.574;2023-11-19T12:03:04;4.33;;;4.13;;
1416;SDS011;703;51.162;13.574;2023-11-19T12:05:31;3.53;;;3.30;;
1416;SDS011;703;51.162;13.574;2023-11-19T12:08:05;7.83;;;3.93;;
1416;SDS011;703;51.162;13.574;2023-11-19T12:10:34;4.37;;;4.07;;
1416;SDS011;703;51.162;13.574;2023-11-19T12:13:02;4.47;;;4.23;;
1416;SDS011;703;51.162;13.574;2023-11-19T12:15:33;4.23;;;3.93;;
1416;SDS011;703;51.162;13.574;2023-11-19T12:18:18;4.13;;;3.83;;
1416;SDS011;703;51.162;13.574;2023-11-19T12:20:44;3.30;;;3.00;;
1416;SDS011;703;51.162;13.574;2023-11-19T12:23:10;5.23;;;4.47;;
1416;SDS011;703;51.162;13.574;2023-11-19T12:25:36;3.53;;;3.33;;
1416;SDS011;703;51.162;13.574;2023-11-19T12:28:02;5.00;;;2.10;;
1416;SDS011;703;51.162;13.574;2023-11-19T12:30:29;4.93;;;4.53;;
1416;SDS011;703;51.162;13.574;2023-11-19T12:32:55;4.70;;;4.50;;
1416;SDS011;703;51.162;13.574;2023-11-19T12:35:20;5.37;;;4.40;;
1416;SDS011;703;51.162;13.574;2023-11-19T12:37:47;5.50;;;5.07;;
1416;SDS011;703;51.162;13.574;2023-11-19T12:42:40;10.40;;;5.97;;
1416;SDS011;703;51.162;13.574;2023-11-19T12:45:06;4.30;;;4.10;;
1416;SDS011;703;51.162;13.574;2023-11-19T12:47:33;5.50;;;4.37;;
1416;SDS011;703;51.162;13.574;2023-11-19T12:49:58;6.00;;;5.50;;
1416;SDS011;703;51.162;13.574;2023-11-19T12:52:24;4.10;;;3.80;;
1416;SDS011;703;51.162;13.574;2023-11-19T12:54:50;9.10;;;5.63;;
1416;SDS011;703;51.162;13.574;2023-11-19T12:57:16;4.53;;;4.17;;
1416;SDS011;703;51.162;13.574;2023-11-19T12:59:53;20.40;;;5.60;;
1416;SDS011;703;51.162;13.574;2023-11-19T13:02:21;3.70;;;3.50;;
1416;SDS011;703;51.162;13.574;2023-11-19T13:04:46;8.97;;;5.30;;
1416;SDS011;703;51.162;13.574;2023-11-19T13:07:12;4.73;;;4.43;;
1416;SDS011;703;51.162;13.574;2023-11-19T13:09:37;3.50;;;3.30;;
1416;SDS011;703;51.162;13.574;2023-11-19T13:12:12;7.40;;;6.80;;
1416;SDS011;703;51.162;13.574;2023-11-19T13:14:41;5.40;;;5.00;;
1416;SDS011;703;51.162;13.574;2023-11-19T13:17:07;10.40;;;6.00;;
1416;SDS011;703;51.162;13.574;2023-11-19T13:19:33;5.10;;;4.60;;
1416;SDS011;703;51.162;13.574;2023-11-19T13:21:59;4.93;;;4.50;;
1416;SDS011;703;51.162;13.574;2023-11-19T13:24:24;6.50;;;4.77;;
1416;SDS011;703;51.162;13.574;2023-11-19T13:26:50;4.53;;;4.23;;
1416;SDS011;703;51.162;13.574;2023-11-19T13:29:15;10.13;;;7.73;;
1416;SDS011;703;51.162;13.574;2023-11-19T13:31:41;9.50;;;6.20;;
1416;SDS011;703;51.162;13.574;2023-11-19T13:34:06;4.53;;;4.27;;
1416;SDS011;703;51.162;13.574;2023-11-19T13:36:33;13.00;;;4.57;;
1416;SDS011;703;51.162;13.574;2023-11-19T13:38:59;4.80;;;4.50;;
1416;SDS011;703;51.162;13.574;2023-11-19T13:41:25;7.20;;;5.60;;
1416;SDS011;703;51.162;13.574;2023-11-19T13:43:51;5.60;;;4.43;;
1416;SDS011;703;51.162;13.574;2023-11-19T13:46:16;5.10;;;4.67;;
1416;SDS011;703;51.162;13.574;2023-11-19T13:48:42;8.83;;;5.30;;
1416;SDS011;703;51.162;13.574;2023-11-19T13:51:07;5.80;;;4.60;;
1416;SDS011;703;51.162;13.574;2023-11-19T13:53:34;5.17;;;4.77;;
1416;SDS011;703;51.162;13.574;2023-11-19T13:56:00;5.63;;;5.13;;
1416;SDS011;703;51.162;13.574;2023-11-19T13:58:26;5.13;;;4.60;;
1416;SDS011;703;51.162;13.574;2023-11-19T14:00:51;10.33;;;4.60;;
1416;SDS011;703;51.162;13.574;2023-11-19T14:03:17;11.63;;;4.60;;
1416;SDS011;703;51.162;13.574;2023-11-19T14:05:43;4.20;;;3.90;;
1416;SDS011;703;51.162;13.574;2023-11-19T14:08:08;4.63;;;4.33;;
1416;SDS011;703;51.162;13.574;2023-11-19T14:10:37;12.40;;;8.03;;
1416;SDS011;703;51.162;13.574;2023-11-19T14:13:05;6.00;;;5.50;;
1416;SDS011;703;51.162;13.574;2023-11-19T14:15:31;6.80;;;6.20;;
1416;SDS011;703;51.162;13.574;2023-11-19T14:17:56;8.40;;;3.33;;
1416;SDS011;703;51.162;13.574;2023-11-19T14:20:22;7.13;;;4.90;;
1416;SDS011;703;51.162;13.574;2023-11-19T14:22:47;5.73;;;5.33;;
1416;SDS011;703;51.162;13.574;2023-11-19T14:25:14;5.20;;;4.90;;
1416;SDS011;703;51.162;13.574;2023-11-19T14:27:40;6.47;;;5.67;;
1416;SDS011;703;51.162;13.574;2023-11-19T14:30:08;10.93;;;5.07;;
1416;SDS011;703;51.162;13.574;2023-11-19T14:32:41;7.17;;;6.37;;
1416;SDS011;703;51.162;13.574;2023-11-19T14:35:09;7.07;;;6.37;;
1416;SDS011;703;51.162;13.574;2023-11-19T14:37:34;6.50;;;6.10;;
1416;SDS011;703;51.162;13.574;2023-11-19T14:40:00;8.07;;;5.77;;
1416;SDS011;703;51.162;13.574;2023-11-19T14:42:28;5.53;;;5.03;;
1416;SDS011;703;51.162;13.574;2023-11-19T14:44:54;5.80;;;4.90;;
1416;SDS011;703;51.162;13.574;2023-11-19T14:47:23;7.07;;;6.57;;
1416;SDS011;703;51.162;13.574;2023-11-19T14:49:49;5.90;;;5.07;;
1416;SDS011;703;51.162;13.574;2023-11-19T14:52:14;8.00;;;5.87;;
1416;SDS011;703;51.162;13.574;2023-11-19T14:54:40;9.37;;;6.87;;
1416;SDS011;703;51.162;13.574;2023-11-19T14:57:06;6.10;;;5.53;;
1416;SDS011;703;51.162;13.574;2023-11-19T14:59:35;5.70;;;5.10;;
1416;SDS011;703;51.162;13.574;2023-11-19T15:02:00;14.03;;;7.70;;
1416;SDS011;703;51.162;13.574;2023-11-19T15:04:26;5.40;;;4.90;;
1416;SDS011;703;51.162;13.574;2023-11-19T15:06:52;5.67;;;5.17;;
1416;SDS011;703;51.162;13.574;2023-11-19T15:09:17;9.40;;;4.10;;
1416;SDS011;703;51.162;13.574;2023-11-19T15:11:43;4.37;;;4.07;;
1416;SDS011;703;51.162;13.574;2023-11-19T15:14:11;4.33;;;4.03;;
1416;SDS011;703;51.162;13.574;2023-11-19T15:16:39;5.10;;;4.80;;
1416;SDS011;703;51.162;13.574;2023-11-19T15:19:05;5.00;;;4.70;;
1416;SDS011;703;51.162;13.574;2023-11-19T15:21:33;5.60;;;5.20;;
1416;SDS011;703;51.162;13.574;2023-11-19T15:23:58;3.70;;;3.50;;
1416;SDS011;703;51.162;13.574;2023-11-19T15:26:24;4.63;;;4.33;;
1416;SDS011;703;51.162;13.574;2023-11-19T15:28:50;3.60;;;3.30;;
1416;SDS011;703;51.162;13.574;2023-11-19T15:31:21;5.73;;;5.23;;
1416;SDS011;703;51.162;13.574;2023-11-19T15:33:47;7.00;;;4.57;;
1416;SDS011;703;51.162;13.574;2023-11-19T15:36:12;6.20;;;4.10;;